sensor_id;sensor_type;location;lat;lon;timestamp;P1;durP1;ratioP1;P2;durP2;ratioP2
36441;SDS011;64346;50.820;16.274;2023-03-14T00:01:26;12.30;;;4.25;;
36441;SDS011;64346;50.820;16.274;2023-03-14T00:03:56;9.00;;;4.13;;
36441;SDS011;64346;50.820;16.274;2023-03-14T00:06:23;10.05;;;4.10;;
36441;SDS011;64346;50.820;16.274;2023-03-14T00:08:51;11.80;;;4.15;;
36441;SDS011;64346;50.820;16.274;2023-03-14T00:11:19;10.75;;;5.25;;
36441;SDS011;64346;50.820;16.274;2023-03-14T00:13:48;11.57;;;4.85;;
36441;SDS011;64346;50.820;16.274;2023-03-14T00:16:16;11.48;;;4.20;;
36441;SDS011;64346;50.820;16.274;2023-03-14T00:18:53;9.90;;;4.32;;
36441;SDS011;64346;50.820;16.274;2023-03-14T00:21:20;10.52;;;4.10;;
36441;SDS011;64346;50.820;16.274;2023-03-14T00:23:50;9.88;;;4.43;;
36441;SDS011;64346;50.820;16.274;2023-03-14T00:26:18;9.82;;;4.00;;
36441;SDS011;64346;50.820;16.274;2023-03-14T00:28:50;10.20;;;4.70;;
36441;SDS011;64346;50.820;16.274;2023-03-14T00:31:21;9.35;;;4.63;;
36441;SDS011;64346;50.820;16.274;2023-03-14T00:33:51;12.27;;;5.13;;
36441;SDS011;64346;50.820;16.274;2023-03-14T00:36:25;11.98;;;4.80;;
36441;SDS011;64346;50.820;16.274;2023-03-14T00:38:53;12.40;;;4.78;;
36441;SDS011;64346;50.820;16.274;2023-03-14T00:41:23;12.70;;;5.13;;
36441;SDS011;64346;50.820;16.274;2023-03-14T00:43:50;12.63;;;4.53;;
36441;SDS011;64346;50.820;16.274;2023-03-14T00:46:18;12.65;;;5.70;;
36441;SDS011;64346;50.820;16.274;2023-03-14T00:48:45;8.45;;;4.70;;
36441;SDS011;64346;50.820;16.274;2023-03-14T00:51:13;11.88;;;4.90;;
36441;SDS011;64346;50.820;16.274;2023-03-14T00:53:41;9.55;;;4.50;;
36441;SDS011;64346;50.820;16.274;2023-03-14T00:56:10;11.20;;;4.57;;
36441;SDS011;64346;50.820;16.274;2023-03-14T00:58:38;11.38;;;4.63;;
36441;SDS011;64346;50.820;16.274;2023-03-14T01:01:09;12.32;;;5.25;;
36441;SDS011;64346;50.820;16.274;2023-03-14T01:03:40;12.32;;;4.50;;
36441;SDS011;64346;50.820;16.274;2023-03-14T01:06:16;14.73;;;4.88;;
36441;SDS011;64346;50.820;16.274;2023-03-14T01:08:47;12.23;;;4.95;;
36441;SDS011;64346;50.820;16.274;2023-03-14T01:11:16;13.30;;;5.07;;
36441;SDS011;64346;50.820;16.274;2023-03-14T01:13:45;9.15;;;4.30;;
36441;SDS011;64346;50.820;16.274;2023-03-14T01:16:12;10.32;;;4.90;;
36441;SDS011;64346;50.820;16.274;2023-03-14T01:18:41;10.73;;;4.70;;
36441;SDS011;64346;50.820;16.274;2023-03-14T01:21:14;12.43;;;5.25;;
36441;SDS011;64346;50.820;16.274;2023-03-14T01:23:51;13.20;;;5.72;;
36441;SDS011;64346;50.820;16.274;2023-03-14T01:26:20;12.73;;;4.63;;
36441;SDS011;64346;50.820;16.274;2023-03-14T01:28:55;10.27;;;4.65;;
36441;SDS011;64346;50.820;16.274;2023-03-14T01:31:23;11.40;;;4.95;;
36441;SDS011;64346;50.820;16.274;2023-03-14T01:33:52;11.93;;;5.07;;
36441;SDS011;64346;50.820;16.274;2023-03-14T01:36:19;12.52;;;5.82;;
36441;SDS011;64346;50.820;16.274;2023-03-14T01:38:46;16.98;;;6.63;;
36441;SDS011;64346;50.820;16.274;2023-03-14T01:41:18;13.70;;;5.05;;
36441;SDS011;64346;50.820;16.274;2023-03-14T01:43:48;13.50;;;4.78;;
36441;SDS011;64346;50.820;16.274;2023-03-14T01:46:25;10.88;;;5.13;;
36441;SDS011;64346;50.820;16.274;2023-03-14T01:49:33;13.52;;;5.30;;
36441;SDS011;64346;50.820;16.274;2023-03-14T01:51:56;10.65;;;4.93;;
36441;SDS011;64346;50.820;16.274;2023-03-14T01:57:12;11.70;;;5.15;;
36441;SDS011;64346;50.820;16.274;2023-03-14T01:59:43;12.20;;;4.63;;
36441;SDS011;64346;50.820;16.274;2023-03-14T02:02:19;12.02;;;4.40;;
36441;SDS011;64346;50.820;16.274;2023-03-14T02:04:49;10.70;;;4.65;;
36441;SDS011;64346;50.820;16.274;2023-03-14T02:07:24;8.73;;;4.07;;
36441;SDS011;64346;50.820;16.274;2023-03-14T02:10:04;10.30;;;4.45;;
36441;SDS011;64346;50.820;16.274;2023-03-14T02:12:32;13.07;;;5.35;;
36441;SDS011;64346;50.820;16.274;2023-03-14T02:15:00;15.38;;;6.45;;
36441;SDS011;64346;50.820;16.274;2023-03-14T02:17:30;9.75;;;4.72;;
36441;SDS011;64346;50.820;16.274;2023-03-14T02:22:48;9.82;;;4.80;;
36441;SDS011;64346;50.820;16.274;2023-03-14T02:27:54;13.38;;;5.93;;
36441;SDS011;64346;50.820;16.274;2023-03-14T02:30:24;18.20;;;6.40;;
36441;SDS011;64346;50.820;16.274;2023-03-14T02:33:03;15.95;;;6.22;;
36441;SDS011;64346;50.820;16.274;2023-03-14T02:35:44;13.82;;;6.20;;
36441;SDS011;64346;50.820;16.274;2023-03-14T02:40:53;11.70;;;5.75;;
36441;SDS011;64346;50.820;16.274;2023-03-14T02:43:22;11.25;;;5.63;;
36441;SDS011;64346;50.820;16.274;2023-03-14T02:45:50;9.38;;;4.90;;
36441;SDS011;64346;50.820;16.274;2023-03-14T02:48:40;11.77;;;4.78;;
36441;SDS011;64346;50.820;16.274;2023-03-14T02:51:11;10.63;;;4.80;;
36441;SDS011;64346;50.820;16.274;2023-03-14T02:53:42;9.70;;;5.47;;
36441;SDS011;64346;50.820;16.274;2023-03-14T02:56:11;10.13;;;4.47;;
36441;SDS011;64346;50.820;16.274;2023-03-14T02:58:39;11.65;;;4.93;;
36441;SDS011;64346;50.820;16.274;2023-03-14T03:03:50;9.05;;;4.78;;
36441;SDS011;64346;50.820;16.274;2023-03-14T03:06:17;10.60;;;4.85;;
36441;SDS011;64346;50.820;16.274;2023-03-14T03:08:44;8.75;;;4.38;;
36441;SDS011;64346;50.820;16.274;2023-03-14T03:11:12;8.68;;;3.85;;
36441;SDS011;64346;50.820;16.274;2023-03-14T03:13:41;13.15;;;4.70;;
36441;SDS011;64346;50.820;16.274;2023-03-14T03:16:11;12.98;;;4.13;;
36441;SDS011;64346;50.820;16.274;2023-03-14T03:18:38;8.20;;;4.10;;
36441;SDS011;64346;50.820;16.274;2023-03-14T03:21:06;10.88;;;3.97;;
36441;SDS011;64346;50.820;16.274;2023-03-14T03:23:33;7.57;;;3.70;;
36441;SDS011;64346;50.820;16.274;2023-03-14T03:26:00;10.68;;;4.07;;
36441;SDS011;64346;50.820;16.274;2023-03-14T03:28:27;8.35;;;3.30;;
36441;SDS011;64346;50.820;16.274;2023-03-14T03:31:05;8.40;;;3.17;;
36441;SDS011;64346;50.820;16.274;2023-03-14T03:33:36;7.82;;;3.20;;
36441;SDS011;64346;50.820;16.274;2023-03-14T03:36:04;8.00;;;2.97;;
36441;SDS011;64346;50.820;16.274;2023-03-14T03:38:31;5.70;;;2.72;;
36441;SDS011;64346;50.820;16.274;2023-03-14T03:41:01;6.50;;;2.92;;
36441;SDS011;64346;50.820;16.274;2023-03-14T03:43:29;6.18;;;2.80;;
36441;SDS011;64346;50.820;16.274;2023-03-14T03:45:56;8.07;;;3.40;;
36441;SDS011;64346;50.820;16.274;2023-03-14T03:48:23;7.28;;;3.60;;
36441;SDS011;64346;50.820;16.274;2023-03-14T03:50:51;14.32;;;4.40;;
36441;SDS011;64346;50.820;16.274;2023-03-14T03:53:18;15.65;;;4.50;;
36441;SDS011;64346;50.820;16.274;2023-03-14T03:55:59;11.60;;;4.90;;
36441;SDS011;64346;50.820;16.274;2023-03-14T03:58:28;12.82;;;4.97;;
36441;SDS011;64346;50.820;16.274;2023-03-14T04:00:56;9.90;;;4.47;;
36441;SDS011;64346;50.820;16.274;2023-03-14T04:03:23;10.73;;;5.28;;
36441;SDS011;64346;50.820;16.274;2023-03-14T04:06:04;12.07;;;5.15;;
36441;SDS011;64346;50.820;16.274;2023-03-14T04:08:32;14.25;;;5.90;;
36441;SDS011;64346;50.820;16.274;2023-03-14T04:11:03;11.43;;;4.35;;
36441;SDS011;64346;50.820;16.274;2023-03-14T04:13:30;14.80;;;5.55;;
36441;SDS011;64346;50.820;16.274;2023-03-14T04:15:57;13.07;;;5.28;;
36441;SDS011;64346;50.820;16.274;2023-03-14T04:18:27;14.43;;;5.45;;
36441;SDS011;64346;50.820;16.274;2023-03-14T04:20:55;13.13;;;5.63;;
36441;SDS011;64346;50.820;16.274;2023-03-14T04:23:24;11.63;;;4.97;;
36441;SDS011;64346;50.820;16.274;2023-03-14T04:25:52;12.13;;;5.10;;
36441;SDS011;64346;50.820;16.274;2023-03-14T04:28:22;15.40;;;6.45;;
36441;SDS011;64346;50.820;16.274;2023-03-14T04:30:49;13.85;;;5.10;;
36441;SDS011;64346;50.820;16.274;2023-03-14T04:33:16;11.23;;;5.03;;
36441;SDS011;64346;50.820;16.274;2023-03-14T04:35:44;9.27;;;3.80;;
36441;SDS011;64346;50.820;16.274;2023-03-14T04:38:12;7.05;;;3.15;;
36441;SDS011;64346;50.820;16.274;2023-03-14T04:40:40;9.63;;;3.97;;
36441;SDS011;64346;50.820;16.274;2023-03-14T04:43:08;10.68;;;4.10;;
36441;SDS011;64346;50.820;16.274;2023-03-14T04:45:37;7.75;;;3.85;;
36441;SDS011;64346;50.820;16.274;2023-03-14T04:48:07;12.00;;;4.07;;
36441;SDS011;64346;50.820;16.274;2023-03-14T04:50:35;8.80;;;4.25;;
36441;SDS011;64346;50.820;16.274;2023-03-14T04:53:02;8.35;;;3.80;;
36441;SDS011;64346;50.820;16.274;2023-03-14T04:55:29;19.90;;;8.95;;
36441;SDS011;64346;50.820;16.274;2023-03-14T04:57:58;9.73;;;3.88;;
36441;SDS011;64346;50.820;16.274;2023-03-14T05:00:26;8.23;;;4.22;;
36441;SDS011;64346;50.820;16.274;2023-03-14T05:02:53;7.68;;;3.67;;
36441;SDS011;64346;50.820;16.274;2023-03-14T05:05:20;8.18;;;3.53;;
36441;SDS011;64346;50.820;16.274;2023-03-14T05:07:47;14.00;;;4.78;;
36441;SDS011;64346;50.820;16.274;2023-03-14T05:10:17;10.18;;;3.95;;
36441;SDS011;64346;50.820;16.274;2023-03-14T05:12:47;10.95;;;4.38;;
36441;SDS011;64346;50.820;16.274;2023-03-14T05:15:15;12.07;;;4.55;;
36441;SDS011;64346;50.820;16.274;2023-03-14T05:17:42;9.88;;;4.53;;
36441;SDS011;64346;50.820;16.274;2023-03-14T05:20:09;11.80;;;4.72;;
36441;SDS011;64346;50.820;16.274;2023-03-14T05:22:37;11.85;;;5.20;;
36441;SDS011;64346;50.820;16.274;2023-03-14T05:25:05;11.13;;;4.90;;
36441;SDS011;64346;50.820;16.274;2023-03-14T05:27:33;9.88;;;4.68;;
36441;SDS011;64346;50.820;16.274;2023-03-14T05:30:02;10.07;;;4.78;;
36441;SDS011;64346;50.820;16.274;2023-03-14T05:32:30;12.43;;;5.55;;
36441;SDS011;64346;50.820;16.274;2023-03-14T05:34:58;9.45;;;4.63;;
36441;SDS011;64346;50.820;16.274;2023-03-14T05:37:26;9.85;;;5.20;;
36441;SDS011;64346;50.820;16.274;2023-03-14T05:39:55;14.98;;;5.32;;
36441;SDS011;64346;50.820;16.274;2023-03-14T05:42:22;13.43;;;5.22;;
36441;SDS011;64346;50.820;16.274;2023-03-14T05:44:50;13.85;;;5.43;;
36441;SDS011;64346;50.820;16.274;2023-03-14T05:47:17;16.65;;;6.43;;
36441;SDS011;64346;50.820;16.274;2023-03-14T05:49:44;12.60;;;5.22;;
36441;SDS011;64346;50.820;16.274;2023-03-14T05:52:12;12.85;;;5.35;;
36441;SDS011;64346;50.820;16.274;2023-03-14T05:54:41;12.20;;;5.10;;
36441;SDS011;64346;50.820;16.274;2023-03-14T05:57:11;9.15;;;4.57;;
36441;SDS011;64346;50.820;16.274;2023-03-14T05:59:38;14.90;;;5.70;;
36441;SDS011;64346;50.820;16.274;2023-03-14T06:02:05;10.95;;;4.65;;
36441;SDS011;64346;50.820;16.274;2023-03-14T06:04:33;9.63;;;5.13;;
36441;SDS011;64346;50.820;16.274;2023-03-14T06:07:02;17.48;;;5.50;;
36441;SDS011;64346;50.820;16.274;2023-03-14T06:09:30;11.23;;;4.97;;
36441;SDS011;64346;50.820;16.274;2023-03-14T06:11:57;12.30;;;5.55;;
36441;SDS011;64346;50.820;16.274;2023-03-14T06:14:24;12.13;;;5.43;;
36441;SDS011;64346;50.820;16.274;2023-03-14T06:16:54;12.73;;;5.13;;
36441;SDS011;64346;50.820;16.274;2023-03-14T06:19:21;12.05;;;6.10;;
36441;SDS011;64346;50.820;16.274;2023-03-14T06:21:48;12.73;;;5.75;;
36441;SDS011;64346;50.820;16.274;2023-03-14T06:24:16;11.40;;;5.07;;
36441;SDS011;64346;50.820;16.274;2023-03-14T06:26:43;12.63;;;5.88;;
36441;SDS011;64346;50.820;16.274;2023-03-14T06:29:10;13.02;;;5.45;;
36441;SDS011;64346;50.820;16.274;2023-03-14T06:31:40;12.15;;;4.82;;
36441;SDS011;64346;50.820;16.274;2023-03-14T06:34:07;12.02;;;5.13;;
36441;SDS011;64346;50.820;16.274;2023-03-14T06:36:34;9.63;;;4.13;;
36441;SDS011;64346;50.820;16.274;2023-03-14T06:39:02;11.85;;;5.88;;
36441;SDS011;64346;50.820;16.274;2023-03-14T06:41:29;13.38;;;5.03;;
36441;SDS011;64346;50.820;16.274;2023-03-14T06:43:56;11.20;;;4.82;;
36441;SDS011;64346;50.820;16.274;2023-03-14T06:46:24;10.07;;;4.78;;
36441;SDS011;64346;50.820;16.274;2023-03-14T06:48:56;14.07;;;5.00;;
36441;SDS011;64346;50.820;16.274;2023-03-14T06:51:23;9.57;;;4.97;;
36441;SDS011;64346;50.820;16.274;2023-03-14T06:53:53;11.30;;;4.80;;
36441;SDS011;64346;50.820;16.274;2023-03-14T06:56:23;11.05;;;5.20;;
36441;SDS011;64346;50.820;16.274;2023-03-14T06:58:50;13.10;;;4.65;;
36441;SDS011;64346;50.820;16.274;2023-03-14T07:01:21;12.40;;;5.65;;
36441;SDS011;64346;50.820;16.274;2023-03-14T07:06:18;12.15;;;5.22;;
36441;SDS011;64346;50.820;16.274;2023-03-14T07:08:46;11.85;;;5.03;;
36441;SDS011;64346;50.820;16.274;2023-03-14T07:11:18;12.18;;;4.82;;
36441;SDS011;64346;50.820;16.274;2023-03-14T07:13:45;9.45;;;4.05;;
36441;SDS011;64346;50.820;16.274;2023-03-14T07:16:13;8.50;;;4.35;;
36441;SDS011;64346;50.820;16.274;2023-03-14T07:18:40;8.38;;;3.80;;
36441;SDS011;64346;50.820;16.274;2023-03-14T07:21:07;11.20;;;3.90;;
36441;SDS011;64346;50.820;16.274;2023-03-14T07:23:38;9.20;;;4.20;;
36441;SDS011;64346;50.820;16.274;2023-03-14T07:26:06;10.95;;;4.13;;
36441;SDS011;64346;50.820;16.274;2023-03-14T07:28:34;10.52;;;4.35;;
36441;SDS011;64346;50.820;16.274;2023-03-14T07:31:01;11.55;;;5.40;;
36441;SDS011;64346;50.820;16.274;2023-03-14T07:33:28;11.77;;;5.57;;
36441;SDS011;64346;50.820;16.274;2023-03-14T07:36:00;12.05;;;6.22;;
36441;SDS011;64346;50.820;16.274;2023-03-14T07:38:30;9.32;;;4.25;;
36441;SDS011;64346;50.820;16.274;2023-03-14T07:41:03;9.18;;;4.28;;
36441;SDS011;64346;50.820;16.274;2023-03-14T07:43:32;8.80;;;3.97;;
36441;SDS011;64346;50.820;16.274;2023-03-14T07:45:59;9.35;;;4.45;;
36441;SDS011;64346;50.820;16.274;2023-03-14T07:48:27;8.57;;;3.90;;
36441;SDS011;64346;50.820;16.274;2023-03-14T07:50:55;9.18;;;4.18;;
36441;SDS011;64346;50.820;16.274;2023-03-14T07:53:24;9.27;;;4.32;;
36441;SDS011;64346;50.820;16.274;2023-03-14T07:55:52;11.73;;;4.47;;
36441;SDS011;64346;50.820;16.274;2023-03-14T07:58:21;9.65;;;4.30;;
36441;SDS011;64346;50.820;16.274;2023-03-14T08:00:48;8.15;;;4.15;;
36441;SDS011;64346;50.820;16.274;2023-03-14T08:03:16;8.55;;;3.85;;
36441;SDS011;64346;50.820;16.274;2023-03-14T08:05:46;7.78;;;3.85;;
36441;SDS011;64346;50.820;16.274;2023-03-14T08:08:17;8.30;;;3.92;;
36441;SDS011;64346;50.820;16.274;2023-03-14T08:10:47;8.25;;;4.13;;
36441;SDS011;64346;50.820;16.274;2023-03-14T08:13:14;9.55;;;4.28;;
36441;SDS011;64346;50.820;16.274;2023-03-14T08:15:42;11.45;;;4.57;;
36441;SDS011;64346;50.820;16.274;2023-03-14T08:18:09;9.30;;;4.35;;
36441;SDS011;64346;50.820;16.274;2023-03-14T08:20:36;9.30;;;4.47;;
36441;SDS011;64346;50.820;16.274;2023-03-14T08:23:04;6.60;;;3.50;;
36441;SDS011;64346;50.820;16.274;2023-03-14T08:25:31;9.60;;;3.97;;
36441;SDS011;64346;50.820;16.274;2023-03-14T08:27:58;17.13;;;4.13;;
36441;SDS011;64346;50.820;16.274;2023-03-14T08:30:26;7.88;;;3.55;;
36441;SDS011;64346;50.820;16.274;2023-03-14T08:32:53;10.43;;;3.88;;
36441;SDS011;64346;50.820;16.274;2023-03-14T08:35:23;7.82;;;3.67;;
36441;SDS011;64346;50.820;16.274;2023-03-14T08:37:51;8.18;;;3.80;;
36441;SDS011;64346;50.820;16.274;2023-03-14T08:40:19;8.07;;;4.00;;
36441;SDS011;64346;50.820;16.274;2023-03-14T08:42:46;8.25;;;4.25;;
36441;SDS011;64346;50.820;16.274;2023-03-14T08:45:14;9.48;;;4.60;;
36441;SDS011;64346;50.820;16.274;2023-03-14T08:47:43;8.25;;;3.95;;
36441;SDS011;64346;50.820;16.274;2023-03-14T08:50:13;9.98;;;3.65;;
36441;SDS011;64346;50.820;16.274;2023-03-14T08:52:43;8.95;;;3.55;;
36441;SDS011;64346;50.820;16.274;2023-03-14T08:55:11;9.35;;;3.55;;
36441;SDS011;64346;50.820;16.274;2023-03-14T08:57:41;10.35;;;4.35;;
36441;SDS011;64346;50.820;16.274;2023-03-14T09:00:08;10.55;;;4.80;;
36441;SDS011;64346;50.820;16.274;2023-03-14T09:02:39;10.93;;;4.68;;
36441;SDS011;64346;50.820;16.274;2023-03-14T09:05:06;9.02;;;4.32;;
36441;SDS011;64346;50.820;16.274;2023-03-14T09:07:34;13.68;;;5.22;;
36441;SDS011;64346;50.820;16.274;2023-03-14T09:10:02;14.60;;;5.82;;
36441;SDS011;64346;50.820;16.274;2023-03-14T09:12:29;9.45;;;4.03;;
36441;SDS011;64346;50.820;16.274;2023-03-14T09:14:57;10.98;;;4.75;;
36441;SDS011;64346;50.820;16.274;2023-03-14T09:17:27;10.07;;;4.30;;
36441;SDS011;64346;50.820;16.274;2023-03-14T09:19:54;7.95;;;3.63;;
36441;SDS011;64346;50.820;16.274;2023-03-14T09:22:24;8.52;;;3.63;;
36441;SDS011;64346;50.820;16.274;2023-03-14T09:24:53;8.30;;;3.55;;
36441;SDS011;64346;50.820;16.274;2023-03-14T09:27:21;8.40;;;3.80;;
36441;SDS011;64346;50.820;16.274;2023-03-14T09:29:48;10.35;;;4.03;;
36441;SDS011;64346;50.820;16.274;2023-03-14T09:32:15;9.52;;;4.13;;
36441;SDS011;64346;50.820;16.274;2023-03-14T09:34:42;8.70;;;3.90;;
36441;SDS011;64346;50.820;16.274;2023-03-14T09:37:10;10.88;;;4.15;;
36441;SDS011;64346;50.820;16.274;2023-03-14T09:39:37;8.25;;;3.15;;
36441;SDS011;64346;50.820;16.274;2023-03-14T09:42:05;8.18;;;3.70;;
36441;SDS011;64346;50.820;16.274;2023-03-14T09:44:35;10.32;;;3.85;;
36441;SDS011;64346;50.820;16.274;2023-03-14T09:47:06;8.98;;;3.92;;
36441;SDS011;64346;50.820;16.274;2023-03-14T09:49:41;7.65;;;3.67;;
36441;SDS011;64346;50.820;16.274;2023-03-14T09:52:16;10.13;;;3.55;;
36441;SDS011;64346;50.820;16.274;2023-03-14T09:54:51;9.60;;;4.13;;
36441;SDS011;64346;50.820;16.274;2023-03-14T09:57:23;10.35;;;4.10;;
36441;SDS011;64346;50.820;16.274;2023-03-14T09:59:52;9.50;;;4.00;;
36441;SDS011;64346;50.820;16.274;2023-03-14T10:02:25;11.27;;;4.50;;
36441;SDS011;64346;50.820;16.274;2023-03-14T10:04:58;10.27;;;4.38;;
36441;SDS011;64346;50.820;16.274;2023-03-14T10:07:32;11.52;;;4.78;;
36441;SDS011;64346;50.820;16.274;2023-03-14T10:10:07;10.43;;;5.03;;
36441;SDS011;64346;50.820;16.274;2023-03-14T10:15:35;10.93;;;4.65;;
36441;SDS011;64346;50.820;16.274;2023-03-14T10:18:09;11.02;;;5.63;;
36441;SDS011;64346;50.820;16.274;2023-03-14T10:28:26;9.98;;;4.00;;
36441;SDS011;64346;50.820;16.274;2023-03-14T10:30:56;10.82;;;4.25;;
36441;SDS011;64346;50.820;16.274;2023-03-14T10:33:28;9.05;;;3.92;;
36441;SDS011;64346;50.820;16.274;2023-03-14T10:38:26;10.77;;;3.70;;
36441;SDS011;64346;50.820;16.274;2023-03-14T10:40:55;7.18;;;3.33;;
36441;SDS011;64346;50.820;16.274;2023-03-14T10:43:26;10.38;;;4.57;;
36441;SDS011;64346;50.820;16.274;2023-03-14T10:45:59;10.40;;;3.65;;
36441;SDS011;64346;50.820;16.274;2023-03-14T10:48:33;7.80;;;3.15;;
36441;SDS011;64346;50.820;16.274;2023-03-14T10:51:06;6.78;;;2.92;;
36441;SDS011;64346;50.820;16.274;2023-03-14T10:54:01;11.90;;;4.22;;
36441;SDS011;64346;50.820;16.274;2023-03-14T10:56:47;7.70;;;2.95;;
36441;SDS011;64346;50.820;16.274;2023-03-14T10:59:24;8.95;;;3.50;;
36441;SDS011;64346;50.820;16.274;2023-03-14T11:07:21;9.10;;;3.78;;
36441;SDS011;64346;50.820;16.274;2023-03-14T11:12:32;6.10;;;3.60;;
36441;SDS011;64346;50.820;16.274;2023-03-14T11:23:20;7.40;;;2.90;;
36441;SDS011;64346;50.820;16.274;2023-03-14T11:31:52;7.55;;;3.45;;
36441;SDS011;64346;50.820;16.274;2023-03-14T11:34:28;6.87;;;2.60;;
36441;SDS011;64346;50.820;16.274;2023-03-14T11:39:41;4.72;;;2.42;;
36441;SDS011;64346;50.820;16.274;2023-03-14T11:42:15;6.75;;;3.08;;
36441;SDS011;64346;50.820;16.274;2023-03-14T11:44:47;9.07;;;3.00;;
36441;SDS011;64346;50.820;16.274;2023-03-14T11:47:51;8.85;;;2.90;;
36441;SDS011;64346;50.820;16.274;2023-03-14T11:50:33;4.80;;;2.70;;
36441;SDS011;64346;50.820;16.274;2023-03-14T11:53:13;7.57;;;2.70;;
36441;SDS011;64346;50.820;16.274;2023-03-14T11:56:01;5.10;;;2.60;;
36441;SDS011;64346;50.820;16.274;2023-03-14T11:58:30;6.40;;;2.92;;
36441;SDS011;64346;50.820;16.274;2023-03-14T12:01:02;7.60;;;2.80;;
36441;SDS011;64346;50.820;16.274;2023-03-14T12:08:56;6.65;;;2.63;;
36441;SDS011;64346;50.820;16.274;2023-03-14T12:14:29;9.88;;;4.43;;
36441;SDS011;64346;50.820;16.274;2023-03-14T12:20:01;10.77;;;3.03;;
36441;SDS011;64346;50.820;16.274;2023-03-14T12:22:43;8.85;;;4.30;;
36441;SDS011;64346;50.820;16.274;2023-03-14T12:25:20;8.07;;;3.23;;
36441;SDS011;64346;50.820;16.274;2023-03-14T12:30:27;8.35;;;3.40;;
36441;SDS011;64346;50.820;16.274;2023-03-14T12:35:36;7.75;;;3.60;;
36441;SDS011;64346;50.820;16.274;2023-03-14T12:38:16;7.55;;;3.42;;
36441;SDS011;64346;50.820;16.274;2023-03-14T12:43:46;9.52;;;3.72;;
36441;SDS011;64346;50.820;16.274;2023-03-14T12:48:45;10.98;;;3.38;;
36441;SDS011;64346;50.820;16.274;2023-03-14T12:51:19;6.20;;;2.53;;
36441;SDS011;64346;50.820;16.274;2023-03-14T12:59:34;6.32;;;2.67;;
36441;SDS011;64346;50.820;16.274;2023-03-14T13:02:18;8.18;;;3.10;;
36441;SDS011;64346;50.820;16.274;2023-03-14T13:10:23;5.32;;;2.00;;
36441;SDS011;64346;50.820;16.274;2023-03-14T13:15:22;7.32;;;2.60;;
36441;SDS011;64346;50.820;16.274;2023-03-14T13:17:51;7.30;;;2.70;;
36441;SDS011;64346;50.820;16.274;2023-03-14T13:20:27;7.05;;;2.63;;
36441;SDS011;64346;50.820;16.274;2023-03-14T13:23:00;5.15;;;2.25;;
36441;SDS011;64346;50.820;16.274;2023-03-14T13:25:35;8.52;;;3.10;;
36441;SDS011;64346;50.820;16.274;2023-03-14T13:28:02;6.85;;;3.42;;
36441;SDS011;64346;50.820;16.274;2023-03-14T13:30:39;8.65;;;3.03;;
36441;SDS011;64346;50.820;16.274;2023-03-14T13:33:12;11.90;;;3.58;;
36441;SDS011;64346;50.820;16.274;2023-03-14T13:35:44;7.38;;;2.80;;
36441;SDS011;64346;50.820;16.274;2023-03-14T13:38:18;7.40;;;2.05;;
36441;SDS011;64346;50.820;16.274;2023-03-14T13:40:49;4.53;;;2.42;;
36441;SDS011;64346;50.820;16.274;2023-03-14T13:46:10;3.28;;;1.73;;
36441;SDS011;64346;50.820;16.274;2023-03-14T13:48:57;6.57;;;2.10;;
36441;SDS011;64346;50.820;16.274;2023-03-14T13:51:30;7.47;;;2.17;;
36441;SDS011;64346;50.820;16.274;2023-03-14T13:53:59;7.80;;;2.90;;
36441;SDS011;64346;50.820;16.274;2023-03-14T13:56:28;5.85;;;2.47;;
36441;SDS011;64346;50.820;16.274;2023-03-14T13:58:57;7.72;;;1.95;;
36441;SDS011;64346;50.820;16.274;2023-03-14T14:01:32;4.55;;;1.63;;
36441;SDS011;64346;50.820;16.274;2023-03-14T14:04:08;7.93;;;2.80;;
36441;SDS011;64346;50.820;16.274;2023-03-14T14:06:55;7.15;;;1.88;;
36441;SDS011;64346;50.820;16.274;2023-03-14T14:09:29;6.00;;;1.95;;
36441;SDS011;64346;50.820;16.274;2023-03-14T14:12:05;4.70;;;1.85;;
36441;SDS011;64346;50.820;16.274;2023-03-14T14:17:51;4.85;;;2.00;;
36441;SDS011;64346;50.820;16.274;2023-03-14T14:20:22;5.28;;;1.95;;
36441;SDS011;64346;50.820;16.274;2023-03-14T14:25:21;4.50;;;1.73;;
36441;SDS011;64346;50.820;16.274;2023-03-14T14:27:51;4.07;;;1.67;;
36441;SDS011;64346;50.820;16.274;2023-03-14T14:32:47;4.88;;;2.65;;
36441;SDS011;64346;50.820;16.274;2023-03-14T14:35:30;3.53;;;1.88;;
36441;SDS011;64346;50.820;16.274;2023-03-14T14:38:02;3.95;;;1.88;;
36441;SDS011;64346;50.820;16.274;2023-03-14T14:40:43;5.70;;;2.40;;
36441;SDS011;64346;50.820;16.274;2023-03-14T14:43:16;8.57;;;3.08;;
36441;SDS011;64346;50.820;16.274;2023-03-14T14:45:47;10.00;;;3.38;;
36441;SDS011;64346;50.820;16.274;2023-03-14T14:48:18;6.28;;;2.38;;
36441;SDS011;64346;50.820;16.274;2023-03-14T14:55:55;5.25;;;2.38;;
36441;SDS011;64346;50.820;16.274;2023-03-14T14:58:26;7.65;;;2.80;;
36441;SDS011;64346;50.820;16.274;2023-03-14T15:01:08;7.78;;;2.78;;
36441;SDS011;64346;50.820;16.274;2023-03-14T15:03:46;8.23;;;3.83;;
36441;SDS011;64346;50.820;16.274;2023-03-14T15:06:18;11.30;;;4.07;;
36441;SDS011;64346;50.820;16.274;2023-03-14T15:08:48;9.95;;;4.13;;
36441;SDS011;64346;50.820;16.274;2023-03-14T15:11:17;11.02;;;5.10;;
36441;SDS011;64346;50.820;16.274;2023-03-14T15:13:45;11.43;;;4.78;;
36441;SDS011;64346;50.820;16.274;2023-03-14T15:16:14;9.85;;;4.90;;
36441;SDS011;64346;50.820;16.274;2023-03-14T15:18:47;9.50;;;4.35;;
36441;SDS011;64346;50.820;16.274;2023-03-14T15:21:20;10.75;;;4.82;;
36441;SDS011;64346;50.820;16.274;2023-03-14T15:23:50;12.55;;;5.07;;
36441;SDS011;64346;50.820;16.274;2023-03-14T15:26:18;11.10;;;4.65;;
36441;SDS011;64346;50.820;16.274;2023-03-14T15:28:48;11.73;;;4.97;;
36441;SDS011;64346;50.820;16.274;2023-03-14T15:31:16;10.80;;;4.47;;
36441;SDS011;64346;50.820;16.274;2023-03-14T15:33:45;11.65;;;4.78;;
36441;SDS011;64346;50.820;16.274;2023-03-14T15:38:57;12.90;;;5.80;;
36441;SDS011;64346;50.820;16.274;2023-03-14T15:41:27;15.75;;;7.32;;
36441;SDS011;64346;50.820;16.274;2023-03-14T15:43:55;13.05;;;5.40;;
36441;SDS011;64346;50.820;16.274;2023-03-14T15:46:25;10.80;;;4.50;;
36441;SDS011;64346;50.820;16.274;2023-03-14T15:48:55;9.30;;;4.05;;
36441;SDS011;64346;50.820;16.274;2023-03-14T15:51:24;9.52;;;4.13;;
36441;SDS011;64346;50.820;16.274;2023-03-14T15:53:52;7.38;;;2.65;;
36441;SDS011;64346;50.820;16.274;2023-03-14T15:56:19;10.20;;;4.78;;
36441;SDS011;64346;50.820;16.274;2023-03-14T15:58:48;14.10;;;5.88;;
36441;SDS011;64346;50.820;16.274;2023-03-14T16:01:15;10.45;;;4.60;;
36441;SDS011;64346;50.820;16.274;2023-03-14T16:03:43;10.18;;;4.25;;
36441;SDS011;64346;50.820;16.274;2023-03-14T16:06:11;10.55;;;3.63;;
36441;SDS011;64346;50.820;16.274;2023-03-14T16:08:40;11.05;;;4.43;;
36441;SDS011;64346;50.820;16.274;2023-03-14T16:11:10;11.45;;;3.95;;
36441;SDS011;64346;50.820;16.274;2023-03-14T16:13:39;11.90;;;4.38;;
36441;SDS011;64346;50.820;16.274;2023-03-14T16:16:10;7.93;;;2.85;;
36441;SDS011;64346;50.820;16.274;2023-03-14T16:18:38;8.82;;;3.05;;
36441;SDS011;64346;50.820;16.274;2023-03-14T16:21:07;7.93;;;3.60;;
36441;SDS011;64346;50.820;16.274;2023-03-14T16:23:37;8.27;;;2.80;;
36441;SDS011;64346;50.820;16.274;2023-03-14T16:26:06;8.38;;;3.55;;
36441;SDS011;64346;50.820;16.274;2023-03-14T16:28:34;9.98;;;3.70;;
36441;SDS011;64346;50.820;16.274;2023-03-14T16:31:08;6.90;;;2.67;;
36441;SDS011;64346;50.820;16.274;2023-03-14T16:33:37;7.80;;;2.50;;
36441;SDS011;64346;50.820;16.274;2023-03-14T16:36:06;8.48;;;2.97;;